Time;durP1;ratioP1;P1;durP2;ratioP2;P2;SDS_P1;SDS_P2;PMS_P1;PMS_P2;Temp;Humidity;BMP_temperature;BMP_pressure;BME280_temperature;BME280_humidity;BME280_pressure;Samples;Min_cycle;Max_cycle;Signal;HPM_P1;HPM_P2
2022/05/08 00:01:27;;;;;;;5.65;2.58;;;;;;;;;;10361306;28;20452;-61
2022/05/08 00:06:26;;;;;;;5.25;2.13;;;;;;;;;;10360675;28;20082;-60
2022/05/08 00:11:24;;;;;;;4.05;2.40;;;;;;;;;;10360488;28;20078;-59
2022/05/08 00:16:22;;;;;;;6.60;2.40;;;;;;;;;;10360442;28;20523;-61
2022/05/08 00:21:22;;;;;;;6.97;2.67;;;;;;;;;;10360454;28;20118;-60
2022/05/08 00:26:20;;;;;;;5.55;2.50;;;;;;;;;;10360158;28;20486;-61
2022/05/08 00:31:18;;;;;;;3.63;2.00;;;;;;;;;;10359766;28;20070;-60
2022/05/08 00:36:17;;;;;;;6.15;2.72;;;;;;;;;;10359911;28;20082;-61
2022/05/08 00:41:17;;;;;;;2.70;2.42;;;;;;;;;;10359544;28;20310;-60
2022/05/08 00:46:16;;;;;;;5.63;3.00;;;;;;;;;;10359027;28;20645;-60
2022/05/08 00:51:19;;;;;;;3.92;2.45;;;;;;;;;;10358006;28;20079;-61
2022/05/08 00:56:19;;;;;;;2.83;2.50;;;;;;;;;;10358968;28;20094;-61
2022/05/08 01:01:17;;;;;;;5.30;2.90;;;;;;;;;;10358480;28;20044;-60
2022/05/08 01:06:16;;;;;;;3.83;2.63;;;;;;;;;;10358249;28;20079;-59
2022/05/08 01:11:14;;;;;;;8.95;2.60;;;;;;;;;;10359155;28;20437;-59
2022/05/08 01:16:15;;;;;;;5.68;2.88;;;;;;;;;;10356180;28;20086;-59
2022/05/08 01:21:15;;;;;;;5.78;2.30;;;;;;;;;;10356802;28;20075;-59
2022/05/08 01:26:20;;;;;;;6.63;2.97;;;;;;;;;;10355746;28;20071;-59
2022/05/08 01:31:18;;;;;;;5.25;3.00;;;;;;;;;;10356777;28;20516;-59
2022/05/08 01:36:16;;;;;;;11.13;3.28;;;;;;;;;;10357012;28;20094;-60
2022/05/08 01:41:16;;;;;;;5.07;2.83;;;;;;;;;;10357031;28;20437;-59
2022/05/08 01:46:14;;;;;;;7.00;3.33;;;;;;;;;;10355212;28;20466;-59
2022/05/08 01:51:12;;;;;;;8.80;3.13;;;;;;;;;;10354292;28;20086;-59
2022/05/08 01:56:12;;;;;;;7.55;4.53;;;;;;;;;;10354337;28;20091;-60
2022/05/08 02:01:11;;;;;;;6.95;3.53;;;;;;;;;;10353509;28;20052;-59
2022/05/08 02:06:10;;;;;;;8.27;3.30;;;;;;;;;;10356371;28;20074;-59
2022/05/08 02:11:08;;;;;;;3.63;2.90;;;;;;;;;;10355971;28;20079;-60
2022/05/08 02:16:06;;;;;;;4.47;3.03;;;;;;;;;;10355878;28;20079;-59
2022/05/08 02:21:06;;;;;;;4.93;3.58;;;;;;;;;;10355788;28;20067;-59
2022/05/08 02:26:04;;;;;;;6.10;3.53;;;;;;;;;;10355647;28;20052;-59
2022/05/08 02:31:02;;;;;;;6.10;3.85;;;;;;;;;;10355579;28;20290;-60
2022/05/08 02:36:00;;;;;;;4.30;3.28;;;;;;;;;;10355102;28;20078;-59
2022/05/08 02:41:01;;;;;;;4.82;3.53;;;;;;;;;;10355628;28;20050;-59
2022/05/08 02:46:02;;;;;;;6.60;3.30;;;;;;;;;;10355519;28;20079;-59
2022/05/08 02:51:00;;;;;;;5.20;3.63;;;;;;;;;;10354213;28;20083;-59
2022/05/08 03:01:16;;;;;;;5.00;3.20;;;;;;;;;;10353121;28;20068;-61
2022/05/08 03:06:14;;;;;;;4.32;3.05;;;;;;;;;;10355286;28;20079;-59
2022/05/08 03:11:29;;;;;;;8.40;3.88;;;;;;;;;;10352361;28;20440;-60
2022/05/08 03:16:28;;;;;;;;;;;;;;;;;;10358759;28;20067;-60
2022/05/08 03:21:26;;;;;;;6.07;4.35;;;;;;;;;;10363548;28;19960;-60
2022/05/08 03:26:28;;;;;;;9.15;3.70;;;;;;;;;;10362629;28;20056;-60
2022/05/08 03:31:27;;;;;;;7.22;3.63;;;;;;;;;;10362682;28;20060;-60
2022/05/08 03:36:26;;;;;;;8.45;4.03;;;;;;;;;;10361996;28;20464;-60
2022/05/08 03:41:25;;;;;;;8.07;3.75;;;;;;;;;;10361956;28;20074;-61
2022/05/08 03:46:24;;;;;;;7.82;4.00;;;;;;;;;;10362541;28;20075;-60
2022/05/08 03:51:22;;;;;;;4.18;3.50;;;;;;;;;;10361941;28;20068;-61
2022/05/08 03:56:20;;;;;;;7.35;4.43;;;;;;;;;;10361039;28;20094;-61
2022/05/08 04:01:20;;;;;;;11.23;4.57;;;;;;;;;;10361529;28;20059;-61
2022/05/08 04:06:18;;;;;;;10.77;3.88;;;;;;;;;;10361116;28;20409;-60
2022/05/08 04:11:16;;;;;;;8.98;4.15;;;;;;;;;;10361157;28;20056;-60
2022/05/08 04:16:17;;;;;;;8.00;3.45;;;;;;;;;;10360254;28;20075;-60
2022/05/08 04:21:17;;;;;;;12.07;7.30;;;;;;;;;;10358453;28;20079;-60
2022/05/08 04:26:15;;;;;;;7.50;5.10;;;;;;;;;;10359088;28;20088;-60
2022/05/08 04:31:14;;;;;;;11.10;6.57;;;;;;;;;;10355425;28;20068;-60
2022/05/08 04:36:12;;;;;;;5.28;3.85;;;;;;;;;;10357440;28;20492;-60
2022/05/08 04:41:12;;;;;;;7.75;4.47;;;;;;;;;;10356562;28;20075;-61
2022/05/08 04:46:11;;;;;;;6.60;3.53;;;;;;;;;;10356295;28;20075;-61
2022/05/08 04:51:10;;;;;;;7.93;3.70;;;;;;;;;;10356321;28;20086;-61
2022/05/08 04:56:09;;;;;;;4.43;3.83;;;;;;;;;;10359196;28;20098;-61
2022/05/08 05:01:08;;;;;;;8.80;4.45;;;;;;;;;;10358626;28;20048;-61
2022/05/08 05:06:07;;;;;;;6.88;3.42;;;;;;;;;;10358642;28;20063;-61
2022/05/08 05:11:06;;;;;;;5.25;3.38;;;;;;;;;;10357650;28;20108;-60
2022/05/08 05:16:05;;;;;;;7.50;4.00;;;;;;;;;;10357792;28;20090;-61
2022/05/08 05:21:05;;;;;;;6.13;3.70;;;;;;;;;;10355891;28;20059;-60
2022/05/08 05:26:03;;;;;;;7.28;4.30;;;;;;;;;;10354588;28;20531;-61
2022/05/08 05:31:02;;;;;;;9.40;6.80;;;;;;;;;;10355135;28;20083;-61
2022/05/08 05:36:00;;;;;;;7.80;4.05;;;;;;;;;;10355812;28;20079;-61
2022/05/08 05:41:00;;;;;;;14.77;9.77;;;;;;;;;;10356723;28;20068;-60
2022/05/08 05:51:19;;;;;;;10.60;8.40;;;;;;;;;;10331455;28;20532;-62
2022/05/08 05:56:19;;;;;;;9.40;4.70;;;;;;;;;;10353749;28;20449;-62
2022/05/08 06:01:18;;;;;;;6.43;4.47;;;;;;;;;;10356365;28;20044;-62
2022/05/08 06:06:17;;;;;;;9.07;4.28;;;;;;;;;;10356113;28;20075;-61
2022/05/08 06:11:16;;;;;;;6.80;4.13;;;;;;;;;;10356128;28;20547;-60
2022/05/08 06:16:18;;;;;;;8.20;3.95;;;;;;;;;;10355012;28;20067;-61
2022/05/08 06:21:16;;;;;;;5.68;3.90;;;;;;;;;;10356905;28;20413;-62
2022/05/08 06:26:16;;;;;;;5.38;3.47;;;;;;;;;;10352305;28;20094;-60
2022/05/08 06:31:17;;;;;;;4.85;2.95;;;;;;;;;;10348607;28;20078;-61
2022/05/08 06:36:15;;;;;;;5.88;3.30;;;;;;;;;;10347328;28;20076;-60
2022/05/08 06:41:13;;;;;;;8.95;3.20;;;;;;;;;;10350158;28;20378;-60
2022/05/08 06:46:12;;;;;;;6.20;3.53;;;;;;;;;;10350163;28;20064;-59
2022/05/08 06:51:12;;;;;;;28.63;7.90;;;;;;;;;;10357418;28;20044;-60
2022/05/08 06:56:12;;;;;;;35.90;24.23;;;;;;;;;;10361453;28;20067;-59
2022/05/08 07:06:27;;;;;;;10.68;6.38;;;;;;;;;;10362096;28;20072;-61
2022/05/08 07:11:30;;;;;;;9.48;4.63;;;;;;;;;;10362996;28;20090;-60
2022/05/08 07:16:28;;;;;;;12.18;6.38;;;;;;;;;;10363070;28;20078;-60
2022/05/08 07:21:28;;;;;;;6.45;4.25;;;;;;;;;;10362808;28;20071;-60
2022/05/08 07:26:26;;;;;;;19.60;6.22;;;;;;;;;;10362573;28;20086;-60
2022/05/08 07:31:25;;;;;;;5.90;4.07;;;;;;;;;;10362205;28;20063;-59
2022/05/08 07:36:24;;;;;;;6.47;4.35;;;;;;;;;;10361968;28;20072;-60
2022/05/08 07:41:23;;;;;;;11.38;4.25;;;;;;;;;;10363226;28;20051;-60
2022/05/08 07:46:22;;;;;;;7.72;4.25;;;;;;;;;;10362903;28;20043;-60
2022/05/08 07:51:20;;;;;;;7.72;4.82;;;;;;;;;;10361199;28;20077;-60
2022/05/08 07:56:18;;;;;;;10.32;6.60;;;;;;;;;;10361423;28;20076;-61
2022/05/08 08:01:18;;;;;;;10.38;5.38;;;;;;;;;;10360355;28;20072;-61
2022/05/08 08:06:16;;;;;;;10.68;4.85;;;;;;;;;;10361218;28;20591;-60
2022/05/08 08:11:14;;;;;;;21.90;16.83;;;;;;;;;;10360773;28;20480;-60
2022/05/08 08:16:13;;;;;;;17.05;8.40;;;;;;;;;;10358250;28;20469;-61
2022/05/08 08:21:14;;;;;;;13.13;10.02;;;;;;;;;;10357483;28;20071;-60
2022/05/08 08:26:12;;;;;;;5.35;4.22;;;;;;;;;;10360426;28;20052;-60
2022/05/08 08:31:11;;;;;;;7.35;3.92;;;;;;;;;;10357681;28;20070;-60
2022/05/08 08:36:09;;;;;;;9.52;3.40;;;;;;;;;;10359942;28;20082;-60
2022/05/08 08:41:09;;;;;;;7.70;2.97;;;;;;;;;;10360038;28;20523;-60
2022/05/08 08:51:23;;;;;;;7.57;3.20;;;;;;;;;;10358271;28;20060;-60
2022/05/08 08:56:27;;;;;;;4.35;3.15;;;;;;;;;;10359520;28;20075;-60
2022/05/08 09:01:25;;;;;;;6.93;3.90;;;;;;;;;;10358553;28;20079;-60
2022/05/08 09:06:24;;;;;;;9.35;3.45;;;;;;;;;;10358907;28;20450;-60
2022/05/08 09:11:35;;;;;;;3.38;2.90;;;;;;;;;;10358147;28;20129;-60
2022/05/08 09:16:49;;;;;;;5.30;3.22;;;;;;;;;;10348965;28;20098;-60
2022/05/08 09:21:56;;;;;;;14.27;9.00;;;;;;;;;;10354838;28;20080;-60
2022/05/08 09:27:10;;;;;;;3.92;3.28;;;;;;;;;;10355704;28;20060;-61
2022/05/08 09:32:10;;;;;;;6.35;3.15;;;;;;;;;;10356782;28;20481;-60
2022/05/08 09:37:09;;;;;;;6.00;2.95;;;;;;;;;;10353314;28;20071;-60
2022/05/08 09:42:07;;;;;;;7.45;3.20;;;;;;;;;;10356457;28;20067;-60
2022/05/08 09:47:05;;;;;;;10.70;4.30;;;;;;;;;;10354246;28;20079;-63
2022/05/08 09:52:05;;;;;;;15.23;10.27;;;;;;;;;;10355504;28;20470;-60
2022/05/08 09:57:04;;;;;;;14.05;11.63;;;;;;;;;;10353457;28;20079;-60
2022/05/08 10:02:05;;;;;;;16.13;6.53;;;;;;;;;;10355684;28;20078;-61
2022/05/08 10:07:05;;;;;;;10.95;7.55;;;;;;;;;;10354684;28;20079;-60
2022/05/08 10:17:28;;;;;;;7.00;4.45;;;;;;;;;;10353065;28;20134;-60
2022/05/08 10:22:45;;;;;;;11.18;4.38;;;;;;;;;;10348363;28;20087;-60
2022/05/08 10:28:04;;;;;;;7.95;5.30;;;;;;;;;;10352706;28;20067;-60
2022/05/08 10:33:04;;;;;;;6.75;4.32;;;;;;;;;;10354568;28;20091;-61
2022/05/08 10:38:23;;;;;;;6.28;3.60;;;;;;;;;;10353724;28;20083;-61
2022/05/08 10:43:36;;;;;;;9.00;4.60;;;;;;;;;;10354485;28;20033;-60
2022/05/08 10:48:34;;;;;;;8.77;3.72;;;;;;;;;;10355147;28;20083;-60
2022/05/08 10:53:36;;;;;;;8.40;3.47;;;;;;;;;;10349176;28;20528;-60
2022/05/08 10:58:34;;;;;;;8.80;3.50;;;;;;;;;;10355644;28;20098;-60
2022/05/08 11:03:35;;;;;;;12.57;3.42;;;;;;;;;;10354321;28;20044;-60
2022/05/08 11:08:35;;;;;;;7.22;4.45;;;;;;;;;;10353448;28;20063;-60
2022/05/08 11:13:37;;;;;;;8.00;5.13;;;;;;;;;;10350552;28;20079;-60
2022/05/08 11:18:36;;;;;;;16.30;5.78;;;;;;;;;;10355531;28;20517;-60
2022/05/08 11:23:36;;;;;;;9.30;4.43;;;;;;;;;;10352415;28;20076;-58
2022/05/08 11:28:35;;;;;;;12.45;3.97;;;;;;;;;;10353623;28;20148;-57
2022/05/08 11:38:52;;;;;;;9.05;3.00;;;;;;;;;;10353054;28;20504;-58
2022/05/08 11:43:51;;;;;;;3.88;2.22;;;;;;;;;;10359607;28;20079;-58
2022/05/08 11:48:50;;;;;;;4.53;2.35;;;;;;;;;;10360594;28;20071;-57
2022/05/08 11:53:49;;;;;;;5.65;2.40;;;;;;;;;;10361630;28;20075;-57
2022/05/08 11:58:49;;;;;;;3.67;2.00;;;;;;;;;;10361124;28;20075;-57
2022/05/08 12:03:48;;;;;;;7.00;2.25;;;;;;;;;;10360945;28;20074;-58
2022/05/08 12:08:46;;;;;;;6.97;2.22;;;;;;;;;;10361610;28;20153;-58
2022/05/08 12:14:02;;;;;;;5.05;3.10;;;;;;;;;;10361399;28;20091;-58
2022/05/08 12:19:10;;;;;;;4.85;2.67;;;;;;;;;;10359695;28;20505;-58
2022/05/08 12:24:09;;;;;;;9.32;2.50;;;;;;;;;;10360725;28;20079;-57
2022/05/08 12:29:15;;;;;;;4.95;3.13;;;;;;;;;;10360277;28;20075;-57
2022/05/08 12:34:13;;;;;;;4.55;3.35;;;;;;;;;;10359925;28;20044;-58
2022/05/08 12:39:12;;;;;;;3.55;2.30;;;;;;;;;;10358677;28;20496;-58
2022/05/08 12:44:11;;;;;;;7.72;2.70;;;;;;;;;;10360059;28;20481;-57
2022/05/08 12:49:12;;;;;;;5.88;2.97;;;;;;;;;;10357988;28;20501;-58
2022/05/08 12:54:10;;;;;;;3.10;2.50;;;;;;;;;;10359126;28;20048;-59
2022/05/08 13:04:25;;;;;;;5.95;3.67;;;;;;;;;;10355667;28;20072;-59
2022/05/08 13:09:23;;;;;;;11.63;3.55;;;;;;;;;;10351754;28;20501;-60
2022/05/08 13:14:22;;;;;;;4.50;2.38;;;;;;;;;;10356220;28;20453;-58
2022/05/08 13:19:20;;;;;;;3.72;2.70;;;;;;;;;;10358356;28;20071;-57
2022/05/08 13:24:20;;;;;;;8.73;2.47;;;;;;;;;;10355005;28;20068;-57
2022/05/08 13:29:18;;;;;;;9.38;4.47;;;;;;;;;;10357814;28;20417;-58
2022/05/08 13:34:18;;;;;;;6.50;2.58;;;;;;;;;;10355091;28;20076;-58
2022/05/08 13:39:17;;;;;;;5.35;2.88;;;;;;;;;;10356271;28;20179;-58
2022/05/08 13:44:17;;;;;;;6.50;3.50;;;;;;;;;;10356354;28;20472;-58
2022/05/08 13:49:15;;;;;;;8.98;4.43;;;;;;;;;;10354737;28;20083;-57
2022/05/08 13:54:13;;;;;;;5.25;3.28;;;;;;;;;;10353804;28;20070;-58
2022/05/08 13:59:11;;;;;;;3.83;2.15;;;;;;;;;;10355867;28;20091;-58
2022/05/08 14:04:11;;;;;;;4.93;3.00;;;;;;;;;;10353956;28;20067;-57
2022/05/08 14:09:09;;;;;;;5.82;3.03;;;;;;;;;;10356793;28;20071;-57
2022/05/08 14:14:08;;;;;;;6.60;2.58;;;;;;;;;;10356154;28;20078;-55
2022/05/08 14:19:07;;;;;;;7.43;2.30;;;;;;;;;;10355343;28;20071;-59
2022/05/08 14:24:07;;;;;;;6.07;2.90;;;;;;;;;;10353921;28;20098;-58
2022/05/08 14:29:05;;;;;;;6.13;3.47;;;;;;;;;;10355731;28;20068;-58
2022/05/08 14:39:25;;;;;;;4.30;2.13;;;;;;;;;;10334100;28;20088;-58
2022/05/08 14:44:24;;;;;;;3.60;2.42;;;;;;;;;;10355679;28;20441;-58
2022/05/08 14:49:26;;;;;;;7.13;2.42;;;;;;;;;;10355969;28;20489;-58
2022/05/08 14:54:26;;;;;;;4.75;2.92;;;;;;;;;;10355675;28;20065;-58
2022/05/08 14:59:24;;;;;;;5.78;2.67;;;;;;;;;;10354872;28;20071;-57
2022/05/08 15:04:22;;;;;;;3.38;2.20;;;;;;;;;;10347464;28;20153;-56
2022/05/08 15:09:23;;;;;;;7.22;3.47;;;;;;;;;;10353201;28;20071;-58
2022/05/08 15:14:23;;;;;;;4.32;2.38;;;;;;;;;;10362068;28;20372;-58
2022/05/08 15:19:26;;;;;;;5.72;4.03;;;;;;;;;;10360758;28;20493;-57
2022/05/08 15:24:24;;;;;;;6.05;2.33;;;;;;;;;;10361684;28;20076;-57
2022/05/08 15:29:24;;;;;;;6.30;3.08;;;;;;;;;;10362991;28;20179;-57
2022/05/08 15:34:22;;;;;;;5.45;2.63;;;;;;;;;;10359289;28;20094;-57
2022/05/08 15:39:20;;;;;;;5.25;4.03;;;;;;;;;;10360333;28;20591;-57
2022/05/08 15:44:19;;;;;;;10.63;2.78;;;;;;;;;;10359399;28;20536;-56
2022/05/08 15:49:20;;;;;;;6.00;2.65;;;;;;;;;;10359963;28;20067;-57
2022/05/08 15:54:18;;;;;;;9.13;3.47;;;;;;;;;;10353921;28;20099;-57
2022/05/08 15:59:16;;;;;;;5.65;2.60;;;;;;;;;;10363293;28;20102;-55
2022/05/08 16:04:14;;;;;;;3.65;3.25;;;;;;;;;;10363208;28;20075;-57
2022/05/08 16:09:14;;;;;;;7.70;6.32;;;;;;;;;;10356615;28;20074;-54
2022/05/08 16:24:46;;;;;;;5.30;2.95;;;;;;;;;;10354884;28;20102;-57
2022/05/08 16:29:44;;;;;;;4.95;3.25;;;;;;;;;;10358090;28;20076;-56
2022/05/08 16:34:42;;;;;;;9.93;5.00;;;;;;;;;;10359087;28;20068;-57
2022/05/08 16:39:41;;;;;;;5.45;4.10;;;;;;;;;;10356727;28;20090;-57
2022/05/08 16:44:40;;;;;;;9.25;3.58;;;;;;;;;;10355949;28;20441;-54
2022/05/08 16:49:38;;;;;;;9.50;3.58;;;;;;;;;;10355644;28;20148;-56
2022/05/08 16:54:36;;;;;;;8.00;3.45;;;;;;;;;;10357636;28;20066;-55
2022/05/08 16:59:35;;;;;;;5.25;2.72;;;;;;;;;;10356646;28;20153;-56
2022/05/08 17:04:34;;;;;;;9.75;3.70;;;;;;;;;;10359760;28;20060;-55
2022/05/08 17:09:37;;;;;;;6.00;3.50;;;;;;;;;;10357542;28;20068;-57
2022/05/08 17:14:35;;;;;;;5.72;4.70;;;;;;;;;;10357445;28;20043;-57
2022/05/08 17:19:34;;;;;;;7.95;4.65;;;;;;;;;;10358240;28;20074;-56
2022/05/08 17:24:33;;;;;;;8.25;4.35;;;;;;;;;;10358724;28;20072;-56
2022/05/08 17:29:37;;;;;;;12.13;6.88;;;;;;;;;;10350631;28;20067;-57
2022/05/08 17:34:37;;;;;;;7.32;5.13;;;;;;;;;;10357015;28;20052;-56
2022/05/08 17:39:39;;;;;;;7.00;4.50;;;;;;;;;;10356101;28;20067;-57
2022/05/08 17:44:37;;;;;;;7.60;4.00;;;;;;;;;;10357782;28;20052;-56
2022/05/08 17:49:36;;;;;;;10.15;4.10;;;;;;;;;;10353438;28;20481;-58
2022/05/08 17:54:35;;;;;;;13.20;8.65;;;;;;;;;;10353275;28;20060;-56
2022/05/08 17:59:34;;;;;;;8.50;5.90;;;;;;;;;;10354871;28;20067;-57
2022/05/08 18:09:49;;;;;;;4.85;2.70;;;;;;;;;;10355281;28;20083;-57
2022/05/08 18:14:47;;;;;;;4.03;2.53;;;;;;;;;;10352762;28;20391;-56
2022/05/08 18:19:48;;;;;;;6.18;3.13;;;;;;;;;;10354441;28;20071;-57
2022/05/08 18:24:47;;;;;;;7.13;2.83;;;;;;;;;;10354167;28;20568;-57
2022/05/08 18:29:46;;;;;;;5.45;3.78;;;;;;;;;;10355252;28;20109;-57
2022/05/08 18:34:45;;;;;;;5.70;2.55;;;;;;;;;;10356345;28;20048;-56
2022/05/08 18:39:43;;;;;;;5.35;2.30;;;;;;;;;;10354666;28;20301;-55
2022/05/08 18:44:42;;;;;;;5.53;2.78;;;;;;;;;;10350185;28;20072;-55
2022/05/08 18:49:42;;;;;;;5.78;3.15;;;;;;;;;;10354759;28;20068;-57
2022/05/08 18:54:40;;;;;;;3.65;2.67;;;;;;;;;;10356127;28;20044;-56
2022/05/08 18:59:39;;;;;;;9.70;3.28;;;;;;;;;;10355710;28;20082;-56
2022/05/08 19:04:37;;;;;;;11.50;3.30;;;;;;;;;;10354863;28;20059;-55
2022/05/08 19:09:36;;;;;;;4.72;3.03;;;;;;;;;;10356254;28;20095;-56
2022/05/08 19:14:36;;;;;;;7.43;2.75;;;;;;;;;;10353919;28;20068;-54
2022/05/08 19:19:34;;;;;;;3.67;2.47;;;;;;;;;;10346580;28;20072;-56
2022/05/08 19:24:32;;;;;;;7.93;4.30;;;;;;;;;;10353699;28;20076;-52
2022/05/08 19:29:32;;;;;;;5.25;2.50;;;;;;;;;;10351667;28;20063;-55
2022/05/08 19:39:45;;;;;;;4.97;2.47;;;;;;;;;;10349518;28;20067;-56
2022/05/08 19:44:45;;;;;;;7.03;3.35;;;;;;;;;;10354533;28;20083;-56
2022/05/08 19:49:44;;;;;;;6.70;3.40;;;;;;;;;;10354184;28;20068;-56
2022/05/08 19:54:43;;;;;;;6.25;2.58;;;;;;;;;;10351865;28;20064;-57
2022/05/08 19:59:43;;;;;;;7.35;2.65;;;;;;;;;;10355259;28;20082;-56
2022/05/08 20:04:45;;;;;;;5.85;2.22;;;;;;;;;;10359778;28;20047;-54
2022/05/08 20:09:43;;;;;;;8.18;2.40;;;;;;;;;;10357856;28;20659;-54
2022/05/08 20:14:42;;;;;;;3.67;2.58;;;;;;;;;;10357292;28;20106;-56
2022/05/08 20:19:40;;;;;;;5.95;2.38;;;;;;;;;;10357906;28;20504;-55
2022/05/08 20:24:41;;;;;;;6.90;2.58;;;;;;;;;;10359990;28;20068;-56
2022/05/08 20:29:39;;;;;;;3.03;2.10;;;;;;;;;;10356558;28;20079;-56
2022/05/08 20:34:38;;;;;;;9.30;2.88;;;;;;;;;;10359472;28;20524;-56
2022/05/08 20:39:36;;;;;;;4.57;2.72;;;;;;;;;;10360007;28;20452;-53
2022/05/08 20:44:37;;;;;;;5.65;3.05;;;;;;;;;;10359427;28;20058;-56
2022/05/08 20:49:35;;;;;;;5.43;3.30;;;;;;;;;;10357649;28;20064;-57
2022/05/08 20:54:34;;;;;;;13.27;3.80;;;;;;;;;;10359283;28;20066;-54
2022/05/08 20:59:32;;;;;;;6.30;2.20;;;;;;;;;;10358849;28;20434;-56
2022/05/08 21:04:32;;;;;;;3.78;2.60;;;;;;;;;;10354538;28;20082;-56
2022/05/08 21:09:30;;;;;;;7.07;3.03;;;;;;;;;;10355552;28;20040;-55
2022/05/08 21:14:28;;;;;;;5.70;2.67;;;;;;;;;;10358073;28;20079;-54
2022/05/08 21:19:27;;;;;;;6.38;2.45;;;;;;;;;;10359969;28;20067;-57
2022/05/08 21:24:26;;;;;;;6.85;2.40;;;;;;;;;;10356427;28;20075;-55
2022/05/08 21:29:25;;;;;;;5.60;2.40;;;;;;;;;;10354363;28;20072;-56
2022/05/08 21:34:23;;;;;;;3.17;2.25;;;;;;;;;;10357212;28;20048;-57
2022/05/08 21:39:21;;;;;;;5.68;2.70;;;;;;;;;;10357391;28;20044;-56
2022/05/08 21:44:20;;;;;;;4.35;2.53;;;;;;;;;;10355852;28;20494;-56
2022/05/08 21:49:19;;;;;;;4.57;2.13;;;;;;;;;;10355779;28;20532;-57
2022/05/08 21:54:18;;;;;;;5.35;2.67;;;;;;;;;;10357013;28;20056;-57
2022/05/08 21:59:16;;;;;;;7.00;2.30;;;;;;;;;;10357690;28;20406;-56
2022/05/08 22:04:16;;;;;;;4.72;2.28;;;;;;;;;;10358290;28;20075;-56
2022/05/08 22:09:16;;;;;;;5.30;2.47;;;;;;;;;;10356121;28;20044;-56
2022/05/08 22:14:14;;;;;;;5.13;2.80;;;;;;;;;;10356318;28;20076;-57
2022/05/08 22:19:18;;;;;;;3.85;2.20;;;;;;;;;;10344795;28;20043;-57
2022/05/08 22:24:18;;;;;;;5.72;3.00;;;;;;;;;;10356887;28;20075;-56
2022/05/08 22:29:16;;;;;;;8.88;2.72;;;;;;;;;;10356576;28;20052;-56
2022/05/08 22:34:14;;;;;;;3.25;2.05;;;;;;;;;;10356588;28;20047;-55
2022/05/08 22:39:13;;;;;;;4.65;2.50;;;;;;;;;;10355902;28;20048;-55
2022/05/08 22:44:12;;;;;;;3.80;2.40;;;;;;;;;;10355081;28;20071;-50
2022/05/08 22:49:11;;;;;;;14.50;3.45;;;;;;;;;;10356288;28;20083;-56
2022/05/08 22:54:09;;;;;;;4.45;2.90;;;;;;;;;;10356430;28;20484;-54
2022/05/08 22:59:07;;;;;;;4.20;3.33;;;;;;;;;;10356495;28;20501;-58
2022/05/08 23:04:09;;;;;;;9.25;4.13;;;;;;;;;;10356525;28;20360;-56
2022/05/08 23:09:07;;;;;;;3.55;2.40;;;;;;;;;;10355907;28;20080;-55
2022/05/08 23:14:20;;;;;;;7.82;2.70;;;;;;;;;;10356255;28;20044;-56
2022/05/08 23:19:20;;;;;;;4.40;2.70;;;;;;;;;;10355625;28;20052;-56
2022/05/08 23:24:18;;;;;;;5.40;2.58;;;;;;;;;;10354957;28;20479;-57
2022/05/08 23:29:16;;;;;;;7.20;2.70;;;;;;;;;;10355694;28;20040;-56
2022/05/08 23:34:15;;;;;;;6.13;2.85;;;;;;;;;;10359922;28;20048;-56
2022/05/08 23:39:14;;;;;;;7.32;2.72;;;;;;;;;;10362531;28;20040;-55
2022/05/08 23:44:12;;;;;;;5.20;2.55;;;;;;;;;;10361283;28;20075;-57
2022/05/08 23:49:10;;;;;;;6.75;3.83;;;;;;;;;;10363962;28;20080;-56
2022/05/08 23:54:09;;;;;;;7.38;2.67;;;;;;;;;;10363331;28;20047;-53
2022/05/08 23:59:09;;;;;;;5.28;3.03;;;;;;;;;;10362371;28;20079;-57
